Time;durP1;ratioP1;P1;durP2;ratioP2;P2;SDS_P1;SDS_P2;PMS_P1;PMS_P2;Temp;Humidity;BMP_temperature;BMP_pressure;BME280_temperature;BME280_humidity;BME280_pressure;Samples;Min_cycle;Max_cycle;Signal;HPM_P1;HPM_P2
2022/03/12 00:02:24;;;;;;;12.27;7.80;;;10.50;1.20;;;;;;4951005;29;20883;-79
2022/03/12 00:04:49;;;;;;;13.87;7.10;;;10.60;1.00;;;;;;4951038;28;20427;-79
2022/03/12 00:07:16;;;;;;;15.00;7.65;;;10.50;1.00;;;;;;4947936;28;20410;-80
2022/03/12 00:09:43;;;;;;;14.85;8.10;;;10.60;1.00;;;;;;4950169;28;20410;-81
2022/03/12 00:12:14;;;;;;;13.80;7.60;;;10.40;1.00;;;;;;4926561;29;20435;-79
2022/03/12 00:14:41;;;;;;;15.98;7.45;;;10.50;1.10;;;;;;4944171;28;20411;-79
2022/03/12 00:17:07;;;;;;;12.35;7.50;;;10.40;1.00;;;;;;4960319;28;20423;-76
2022/03/12 00:19:33;;;;;;;15.85;8.40;;;10.40;1.00;;;;;;4960798;28;20440;-78
2022/03/12 00:22:03;;;;;;;12.77;8.20;;;10.40;1.00;;;;;;4932523;28;20394;-79
2022/03/12 00:24:29;;;;;;;19.57;7.80;;;10.40;1.00;;;;;;4947501;29;20468;-76
2022/03/12 00:26:55;;;;;;;12.43;7.88;;;10.30;1.00;;;;;;4947936;28;20411;-78
2022/03/12 00:29:20;;;;;;;12.07;7.72;;;10.40;1.30;;;;;;4953484;28;20423;-78
2022/03/12 00:31:50;;;;;;;14.40;8.02;;;10.40;1.00;;;;;;4953091;28;20471;-79
2022/03/12 00:34:17;;;;;;;16.20;8.60;;;10.30;1.00;;;;;;4939624;29;20426;-78
2022/03/12 00:36:44;;;;;;;12.50;8.00;;;10.20;1.00;;;;;;4954669;29;20472;-77
2022/03/12 00:39:12;;;;;;;13.65;8.40;;;10.30;1.40;;;;;;4939642;29;20409;-77
2022/03/12 00:41:38;;;;;;;15.35;8.10;;;10.20;1.20;;;;;;4956670;29;20408;-77
2022/03/12 00:44:05;;;;;;;13.40;7.85;;;10.20;1.00;;;;;;4959844;29;20410;-78
2022/03/12 00:46:31;;;;;;;14.10;8.30;;;10.20;1.50;;;;;;4961508;28;20634;-78
2022/03/12 00:48:57;;;;;;;10.90;7.97;;;10.20;1.00;;;;;;4963938;28;20424;-78
2022/03/12 00:51:22;;;;;;;13.07;8.02;;;10.20;1.40;;;;;;4955881;29;20404;-78
2022/03/12 00:53:48;;;;;;;12.67;7.77;;;10.20;1.50;;;;;;4972025;28;20422;-78
2022/03/12 00:56:14;;;;;;;12.27;7.85;;;10.20;2.30;;;;;;4957986;28;20408;-79
2022/03/12 00:58:45;;;;;;;12.93;8.00;;;10.20;1.90;;;;;;4956421;28;20406;-78
2022/03/12 01:01:12;;;;;;;17.85;8.20;;;10.20;1.20;;;;;;4947851;29;20399;-81
2022/03/12 01:03:38;;;;;;;14.65;8.45;;;10.20;1.00;;;;;;4943178;29;20407;-78
2022/03/12 01:06:05;;;;;;;12.85;8.32;;;10.30;2.30;;;;;;4955326;28;20466;-78
2022/03/12 01:08:33;;;;;;;15.55;8.23;;;10.20;1.00;;;;;;4956792;28;20400;-77
2022/03/12 01:11:02;;;;;;;13.57;8.05;;;10.20;1.00;;;;;;4963165;28;20391;-76
2022/03/12 01:13:28;;;;;;;17.97;8.70;;;10.20;2.40;;;;;;4962668;29;20398;-78
2022/03/12 01:15:54;;;;;;;18.02;8.50;;;10.10;1.00;;;;;;4957607;29;20422;-77
2022/03/12 01:18:21;;;;;;;17.83;9.23;;;10.20;2.00;;;;;;4949522;28;20525;-77
2022/03/12 01:20:49;;;;;;;16.33;8.98;;;10.10;1.00;;;;;;4939448;28;20424;-78
2022/03/12 01:23:17;;;;;;;14.90;8.20;;;10.10;1.30;;;;;;4949683;28;20407;-77
2022/03/12 01:25:44;;;;;;;19.75;8.68;;;10.00;1.70;;;;;;4946399;28;20469;-78
2022/03/12 01:28:13;;;;;;;16.38;8.40;;;10.00;1.70;;;;;;4945988;28;20416;-78
2022/03/12 01:30:41;;;;;;;14.50;8.82;;;10.00;2.90;;;;;;4958873;28;20399;-77
2022/03/12 01:33:07;;;;;;;13.43;8.52;;;10.00;1.50;;;;;;4960260;28;20388;-78
2022/03/12 01:35:33;;;;;;;13.83;8.33;;;9.90;1.70;;;;;;4955216;28;20470;-78
2022/03/12 01:38:01;;;;;;;16.63;9.10;;;10.00;2.40;;;;;;4955583;28;20803;-80
2022/03/12 01:40:27;;;;;;;16.52;8.30;;;9.90;2.70;;;;;;4968871;29;20400;-76
2022/03/12 01:42:52;;;;;;;16.70;8.40;;;9.90;2.60;;;;;;4961735;28;20507;-79
2022/03/12 01:45:27;;;;;;;21.90;9.00;;;10.00;2.70;;;;;;4939585;28;20409;-80
2022/03/12 01:47:57;;;;;;;15.23;9.23;;;9.90;3.20;;;;;;4954326;28;20423;-80
2022/03/12 01:50:28;;;;;;;12.82;8.35;;;9.80;1.90;;;;;;4960848;29;20455;-80
2022/03/12 01:53:00;;;;;;;12.57;8.52;;;9.80;2.40;;;;;;4965587;28;20485;-80
2022/03/12 01:55:31;;;;;;;15.93;9.52;;;9.90;2.80;;;;;;4962342;28;20406;-79
2022/03/12 01:57:59;;;;;;;12.63;8.38;;;9.90;1.90;;;;;;4942853;28;20423;-80
2022/03/12 02:00:26;;;;;;;14.38;8.27;;;9.90;2.50;;;;;;4943323;29;20401;-79
2022/03/12 02:02:53;;;;;;;16.75;8.32;;;9.90;3.10;;;;;;4954378;29;20446;-80
2022/03/12 02:05:20;;;;;;;15.10;8.25;;;9.90;2.20;;;;;;4954105;28;20494;-80
2022/03/12 02:07:46;;;;;;;14.13;8.93;;;10.00;2.60;;;;;;4940752;28;20496;-78
2022/03/12 02:10:17;;;;;;;15.23;8.45;;;9.90;3.20;;;;;;4945591;28;20476;-78
2022/03/12 02:12:42;;;;;;;12.80;9.20;;;9.90;2.90;;;;;;4956865;29;20418;-77
2022/03/12 02:18:30;;;;;;;15.52;9.23;;;10.00;2.50;;;;;;4962895;28;20463;-78
2022/03/12 02:20:57;;;;;;;14.68;8.40;;;10.10;2.50;;;;;;4946873;28;20424;-78
2022/03/12 02:23:23;;;;;;;16.67;8.40;;;10.10;3.10;;;;;;4960753;28;20397;-79
2022/03/12 02:25:49;;;;;;;17.70;9.00;;;10.10;2.60;;;;;;4945485;28;20482;-79
2022/03/12 02:28:17;;;;;;;15.50;9.05;;;10.10;1.50;;;;;;4950770;28;20434;-79
2022/03/12 02:30:51;;;;;;;16.70;9.38;;;10.20;3.80;;;;;;4954602;28;20402;-81
2022/03/12 02:33:27;;;;;;;15.45;9.02;;;10.10;2.10;;;;;;4953197;29;20468;-80
2022/03/12 02:35:53;;;;;;;19.70;9.50;;;10.00;2.80;;;;;;4945959;29;20486;-79
2022/03/12 02:38:21;;;;;;;15.50;9.10;;;10.00;3.10;;;;;;4959134;29;21017;-79
2022/03/12 02:40:50;;;;;;;18.70;9.60;;;10.10;2.80;;;;;;4958989;29;20415;-79
2022/03/12 02:43:25;;;;;;;15.63;8.73;;;10.00;3.00;;;;;;4957030;28;20412;-79
2022/03/12 02:45:51;;;;;;;13.27;8.55;;;10.10;3.00;;;;;;4956916;28;20408;-79
2022/03/12 02:48:18;;;;;;;14.35;8.50;;;10.00;3.70;;;;;;4935313;28;20412;-79
2022/03/12 02:50:45;;;;;;;15.75;9.35;;;10.10;2.70;;;;;;4947969;28;20400;-79
2022/03/12 02:53:10;;;;;;;15.30;9.00;;;9.90;2.70;;;;;;4967256;28;20412;-79
2022/03/12 02:55:41;;;;;;;16.87;9.67;;;9.90;3.40;;;;;;4950538;29;20490;-77
2022/03/12 02:58:10;;;;;;;14.15;8.93;;;9.90;3.20;;;;;;4953811;29;20432;-81
2022/03/12 03:00:37;;;;;;;14.25;8.57;;;9.80;4.20;;;;;;4952022;28;20395;-79
2022/03/12 03:03:05;;;;;;;20.80;9.30;;;9.90;3.60;;;;;;4960699;28;20402;-79
2022/03/12 03:08:02;;;;;;;17.00;9.38;;;9.80;3.70;;;;;;4958121;28;20410;-79
2022/03/12 03:10:33;;;;;;;17.83;9.10;;;9.80;3.80;;;;;;4944665;29;20418;-80
2022/03/12 03:12:59;;;;;;;13.45;8.75;;;9.80;4.00;;;;;;4956653;29;20411;-80
2022/03/12 03:15:25;;;;;;;15.65;9.65;;;9.80;4.10;;;;;;4966902;28;20410;-79
2022/03/12 03:17:51;;;;;;;15.45;9.02;;;9.70;4.50;;;;;;4958013;28;20431;-77
2022/03/12 03:20:17;;;;;;;12.43;8.60;;;9.60;4.60;;;;;;4961617;29;20492;-78
2022/03/12 03:22:43;;;;;;;15.20;8.65;;;9.60;5.30;;;;;;4962163;28;20462;-79
2022/03/12 03:25:08;;;;;;;17.20;9.30;;;9.80;4.90;;;;;;4956175;29;20771;-80
2022/03/12 03:27:34;;;;;;;15.05;9.10;;;9.60;4.00;;;;;;4955116;28;20404;-80
2022/03/12 03:30:00;;;;;;;12.60;8.10;;;9.50;4.30;;;;;;4952828;28;20414;-78
2022/03/12 03:32:25;;;;;;;14.63;9.53;;;9.50;5.10;;;;;;4931461;28;20422;-80
2022/03/12 03:34:51;;;;;;;14.77;9.20;;;9.50;4.70;;;;;;4938228;28;20404;-78
2022/03/12 03:37:16;;;;;;;16.17;8.93;;;9.60;4.90;;;;;;4954658;28;20423;-77
2022/03/12 03:39:42;;;;;;;16.93;9.93;;;9.60;4.50;;;;;;4967121;28;20401;-77
2022/03/12 03:42:07;;;;;;;15.83;9.47;;;9.60;4.60;;;;;;4944530;28;20435;-79
2022/03/12 03:44:33;;;;;;;13.83;8.70;;;9.60;5.10;;;;;;4940979;28;20460;-77
2022/03/12 03:46:59;;;;;;;13.70;9.30;;;9.60;5.40;;;;;;4953613;28;20674;-79
2022/03/12 03:49:25;;;;;;;15.43;9.53;;;9.60;5.60;;;;;;4962628;28;20426;-78
2022/03/12 03:51:51;;;;;;;16.08;9.23;;;9.50;4.90;;;;;;4973006;28;21018;-78
2022/03/12 03:54:17;;;;;;;16.65;9.25;;;9.70;5.10;;;;;;5000631;28;20404;-78
2022/03/12 03:56:43;;;;;;;16.73;9.88;;;9.70;6.20;;;;;;4941099;28;20422;-78
2022/03/12 03:59:09;;;;;;;15.70;9.38;;;9.70;5.80;;;;;;4955960;28;20404;-78
2022/03/12 04:01:40;;;;;;;19.15;9.57;;;9.60;5.70;;;;;;4963491;29;20513;-79
2022/03/12 04:04:06;;;;;;;17.20;9.63;;;9.70;5.30;;;;;;4955492;29;20407;-78
2022/03/12 04:06:31;;;;;;;16.50;10.25;;;9.80;5.60;;;;;;4955161;28;20411;-78
2022/03/12 04:08:58;;;;;;;15.50;9.60;;;9.80;5.50;;;;;;4966530;28;20408;-79
2022/03/12 04:11:25;;;;;;;14.90;9.43;;;9.80;5.00;;;;;;4934989;28;20407;-80
2022/03/12 04:13:52;;;;;;;15.15;9.63;;;9.80;6.40;;;;;;4937011;28;20759;-81
2022/03/12 04:16:20;;;;;;;14.25;9.52;;;9.70;6.00;;;;;;4948247;28;20407;-79
2022/03/12 04:18:46;;;;;;;16.05;9.30;;;9.80;6.00;;;;;;4965252;28;20413;-79
2022/03/12 04:21:14;;;;;;;17.40;9.57;;;9.70;6.50;;;;;;4956658;28;20398;-79
2022/03/12 04:23:44;;;;;;;19.65;10.18;;;9.70;5.80;;;;;;4959458;28;20390;-78
2022/03/12 04:26:10;;;;;;;14.35;9.20;;;9.70;6.10;;;;;;4954409;28;20529;-79
2022/03/12 04:28:37;;;;;;;17.98;10.27;;;9.70;6.80;;;;;;4959269;28;20415;-78
2022/03/12 04:31:04;;;;;;;18.48;10.57;;;9.70;6.70;;;;;;4935824;28;20455;-80
2022/03/12 04:33:30;;;;;;;14.80;9.67;;;9.60;6.20;;;;;;4956861;28;20503;-79
2022/03/12 04:35:57;;;;;;;18.00;10.13;;;9.60;7.10;;;;;;4953124;29;20483;-79
2022/03/12 04:38:23;;;;;;;18.90;10.48;;;9.70;7.00;;;;;;4959779;28;20406;-80
2022/03/12 04:40:49;;;;;;;16.70;10.05;;;9.60;7.10;;;;;;4961868;28;20432;-79
2022/03/12 04:43:15;;;;;;;16.58;9.60;;;9.70;6.70;;;;;;4964836;28;20402;-80
2022/03/12 04:45:46;;;;;;;16.88;9.73;;;9.60;6.90;;;;;;4932508;29;20414;-79
2022/03/12 04:48:21;;;;;;;14.93;9.43;;;9.60;8.00;;;;;;4946067;28;20412;-80
2022/03/12 04:50:48;;;;;;;19.15;10.30;;;9.60;7.90;;;;;;4955508;29;21153;-79
2022/03/12 04:53:15;;;;;;;17.67;9.40;;;9.50;7.40;;;;;;4961747;28;20401;-79
2022/03/12 04:55:41;;;;;;;21.38;10.65;;;9.50;8.30;;;;;;4946374;28;20421;-81
2022/03/12 04:58:09;;;;;;;17.95;10.15;;;9.50;7.70;;;;;;4963764;28;20422;-81
2022/03/12 05:00:38;;;;;;;23.33;9.70;;;9.40;8.60;;;;;;4951485;28;20410;-79
2022/03/12 05:03:19;;;;;;;21.02;10.10;;;9.20;7.50;;;;;;4956250;29;20432;-81
2022/03/12 05:05:49;;;;;;;16.67;9.30;;;9.20;8.60;;;;;;4930337;28;20427;-80
2022/03/12 05:08:36;;;;;;;16.73;9.73;;;9.20;8.60;;;;;;4934156;29;20441;-80
2022/03/12 05:11:02;;;;;;;21.90;10.57;;;9.20;8.00;;;;;;4962620;29;20907;-80
2022/03/12 05:13:28;;;;;;;19.63;10.30;;;9.10;8.50;;;;;;4934915;28;20402;-79
2022/03/12 05:16:02;;;;;;;13.87;9.83;;;9.10;9.60;;;;;;4953446;28;20411;-81
2022/03/12 05:18:28;;;;;;;19.20;9.63;;;8.90;8.70;;;;;;4961083;28;20417;-81
2022/03/12 05:20:54;;;;;;;15.30;9.50;;;8.80;9.80;;;;;;4958919;28;20407;-80
2022/03/12 05:23:20;;;;;;;18.67;10.60;;;8.80;9.40;;;;;;4931929;28;20400;-80
2022/03/12 05:25:48;;;;;;;16.50;10.13;;;8.70;8.90;;;;;;4932270;28;20392;-80
2022/03/12 05:28:16;;;;;;;19.20;10.40;;;8.70;10.00;;;;;;4941453;28;20444;-79
2022/03/12 05:30:46;;;;;;;14.32;9.57;;;8.60;9.20;;;;;;4949934;29;20410;-79
2022/03/12 05:33:13;;;;;;;20.67;10.23;;;8.60;10.00;;;;;;4941286;29;20497;-79
2022/03/12 05:35:42;;;;;;;12.75;9.40;;;8.50;9.70;;;;;;4951102;28;20412;-79
2022/03/12 05:38:09;;;;;;;19.98;10.15;;;8.50;11.80;;;;;;4952611;28;20446;-80
2022/03/12 05:40:38;;;;;;;14.88;9.75;;;8.50;11.10;;;;;;4960886;28;20425;-79
2022/03/12 05:43:06;;;;;;;17.40;9.88;;;8.50;10.90;;;;;;4963342;28;20438;-78
2022/03/12 05:45:32;;;;;;;18.30;10.80;;;8.50;10.70;;;;;;4957890;29;20420;-79
2022/03/12 05:47:58;;;;;;;17.60;9.57;;;8.40;11.00;;;;;;4942272;28;20862;-81
2022/03/12 05:50:24;;;;;;;15.82;9.95;;;8.40;10.70;;;;;;4936564;28;20431;-80
2022/03/12 05:52:50;;;;;;;16.00;10.30;;;8.30;10.90;;;;;;4979179;28;20419;-81
2022/03/12 05:55:18;;;;;;;20.03;10.07;;;8.30;12.50;;;;;;4951626;28;20475;-80
2022/03/12 05:57:44;;;;;;;19.92;10.40;;;8.30;11.60;;;;;;4956721;28;20430;-80
2022/03/12 06:00:11;;;;;;;18.38;10.50;;;8.20;11.90;;;;;;4956770;28;20473;-77
2022/03/12 06:02:49;;;;;;;15.05;10.15;;;8.30;13.00;;;;;;4951306;28;20391;-77
2022/03/12 06:05:20;;;;;;;19.02;10.02;;;8.30;12.20;;;;;;4958019;28;20406;-80
2022/03/12 06:07:46;;;;;;;22.02;9.75;;;8.30;12.40;;;;;;4955032;28;20405;-79
2022/03/12 06:10:37;;;;;;;16.33;9.90;;;8.30;12.30;;;;;;4966155;28;20410;-80
2022/03/12 06:13:06;;;;;;;16.90;9.93;;;8.30;12.40;;;;;;4938926;28;20456;-79
2022/03/12 06:15:33;;;;;;;16.50;10.80;;;8.30;12.60;;;;;;4940115;28;20493;-77
2022/03/12 06:17:58;;;;;;;13.50;9.05;;;8.30;12.90;;;;;;4962520;28;20419;-77
2022/03/12 06:20:24;;;;;;;15.53;9.97;;;8.30;12.80;;;;;;4952523;28;20420;-78
2022/03/12 06:22:52;;;;;;;15.73;10.00;;;8.30;13.00;;;;;;4955235;28;20396;-81
2022/03/12 06:25:18;;;;;;;19.25;11.07;;;8.40;13.40;;;;;;4936938;28;20407;-79
2022/03/12 06:27:49;;;;;;;20.43;10.40;;;8.40;13.30;;;;;;4955713;28;20445;-80
2022/03/12 06:30:16;;;;;;;17.83;10.48;;;8.50;13.80;;;;;;4931670;28;20966;-77
2022/03/12 06:32:45;;;;;;;15.80;10.20;;;8.70;13.40;;;;;;4948041;28;20409;-79
2022/03/12 06:35:12;;;;;;;15.30;10.00;;;8.60;13.20;;;;;;4947102;28;20614;-78
2022/03/12 06:37:39;;;;;;;18.17;10.23;;;8.60;13.70;;;;;;4941716;28;20462;-78
2022/03/12 06:40:08;;;;;;;18.17;10.20;;;8.60;13.50;;;;;;4944909;28;20478;-76
2022/03/12 06:42:34;;;;;;;18.58;11.07;;;8.70;14.00;;;;;;4961201;28;20397;-77
2022/03/12 06:45:00;;;;;;;19.75;10.10;;;8.60;14.10;;;;;;4931719;28;20419;-77
2022/03/12 06:47:29;;;;;;;15.70;10.63;;;8.70;14.20;;;;;;4953652;28;20479;-75
2022/03/12 06:49:57;;;;;;;20.50;11.15;;;8.90;14.10;;;;;;4953049;29;20438;-77
2022/03/12 06:52:24;;;;;;;17.90;9.82;;;9.00;14.30;;;;;;4986615;28;20377;-79
2022/03/12 06:54:51;;;;;;;18.20;10.35;;;9.10;14.10;;;;;;4949179;28;20414;-77
2022/03/12 06:57:17;;;;;;;17.58;11.05;;;9.20;15.00;;;;;;4946514;28;20569;-77
2022/03/12 06:59:43;;;;;;;16.80;10.25;;;9.20;14.80;;;;;;4942842;28;20409;-79
2022/03/12 07:02:08;;;;;;;15.80;10.30;;;9.20;14.90;;;;;;4968620;28;20882;-80
2022/03/12 07:04:34;;;;;;;17.52;10.13;;;9.30;15.20;;;;;;4973911;28;20405;-80
2022/03/12 07:07:01;;;;;;;15.45;10.13;;;9.40;15.40;;;;;;4957595;28;20418;-78
2022/03/12 07:09:27;;;;;;;17.58;10.80;;;9.60;16.10;;;;;;4950083;28;20409;-79
2022/03/12 07:11:58;;;;;;;16.63;10.00;;;9.60;15.20;;;;;;4943979;28;20435;-78
2022/03/12 07:14:24;;;;;;;18.83;10.32;;;9.60;15.80;;;;;;4959675;28;20432;-79
2022/03/12 07:16:50;;;;;;;16.50;10.60;;;9.70;15.60;;;;;;4953536;28;20446;-77
2022/03/12 07:19:15;;;;;;;19.33;10.10;;;9.70;15.50;;;;;;4932247;28;20400;-79
2022/03/12 07:21:41;;;;;;;15.47;9.83;;;9.70;15.50;;;;;;4926898;28;20408;-77
2022/03/12 07:24:07;;;;;;;17.20;10.37;;;9.90;15.40;;;;;;4943018;28;20414;-78
2022/03/12 07:26:32;;;;;;;18.13;10.15;;;10.10;15.40;;;;;;4954364;28;20411;-77
2022/03/12 07:28:59;;;;;;;17.40;10.67;;;10.20;15.80;;;;;;4949977;28;20499;-78
2022/03/12 07:31:25;;;;;;;17.33;10.25;;;10.20;16.20;;;;;;4942556;28;20436;-77
2022/03/12 07:33:51;;;;;;;18.45;9.73;;;10.40;15.70;;;;;;4945660;28;20420;-77
2022/03/12 07:36:17;;;;;;;22.33;10.45;;;10.60;15.30;;;;;;4941184;29;20531;-80
2022/03/12 07:38:43;;;;;;;17.97;9.80;;;10.70;15.70;;;;;;4941807;28;20405;-78
2022/03/12 07:41:08;;;;;;;15.67;9.70;;;10.90;15.50;;;;;;4948604;28;20418;-77
2022/03/12 07:43:34;;;;;;;18.05;10.60;;;10.90;15.40;;;;;;4940157;28;20408;-77
2022/03/12 07:46:00;;;;;;;14.65;10.02;;;10.90;15.80;;;;;;4951018;28;20430;-78
2022/03/12 07:48:25;;;;;;;16.20;10.65;;;10.90;15.70;;;;;;4967393;22;20489;-78
2022/03/12 07:50:51;;;;;;;18.90;10.10;;;11.20;15.70;;;;;;4955252;28;20406;-79
2022/03/12 07:53:17;;;;;;;14.50;9.82;;;11.30;15.50;;;;;;4956129;28;20412;-79
2022/03/12 07:55:43;;;;;;;14.30;9.73;;;11.40;15.60;;;;;;4938288;28;20402;-79
2022/03/12 07:58:09;;;;;;;18.13;10.03;;;11.40;15.90;;;;;;4938180;29;20421;-79
2022/03/12 08:00:34;;;;;;;18.80;10.50;;;11.60;16.20;;;;;;4926567;28;20436;-82
2022/03/12 08:03:00;;;;;;;18.83;10.40;;;11.80;15.70;;;;;;4925948;28;20411;-79
2022/03/12 08:05:26;;;;;;;16.40;10.83;;;11.90;15.50;;;;;;4938688;28;20896;-79
2022/03/12 08:07:55;;;;;;;16.43;10.53;;;11.70;16.30;;;;;;4929253;29;20943;-81
2022/03/12 08:10:22;;;;;;;17.48;10.20;;;11.70;16.50;;;;;;4927338;28;20423;-81
2022/03/12 08:12:50;;;;;;;15.27;10.38;;;11.70;16.80;;;;;;4931373;28;20408;-78
2022/03/12 08:15:16;;;;;;;16.35;10.00;;;11.70;16.80;;;;;;4932039;28;20424;-78
2022/03/12 08:17:43;;;;;;;14.82;10.13;;;11.90;16.50;;;;;;4930430;29;20421;-78
2022/03/12 08:20:10;;;;;;;17.60;10.00;;;11.90;16.60;;;;;;4922241;28;20413;-78
2022/03/12 08:22:41;;;;;;;15.70;10.40;;;12.00;16.70;;;;;;4920195;28;20413;-78
2022/03/12 08:25:09;;;;;;;16.80;10.70;;;12.10;16.60;;;;;;4922746;29;20490;-76
2022/03/12 08:27:37;;;;;;;20.35;10.85;;;12.10;16.90;;;;;;4927065;29;20845;-79
2022/03/12 08:30:04;;;;;;;16.85;10.00;;;12.20;17.00;;;;;;4909439;28;20448;-77
2022/03/12 08:32:30;;;;;;;16.67;9.97;;;12.40;16.50;;;;;;4923272;28;20440;-78
2022/03/12 08:34:57;;;;;;;19.93;11.50;;;12.40;16.20;;;;;;4930172;29;20506;-78
2022/03/12 08:37:23;;;;;;;16.67;10.18;;;12.40;16.90;;;;;;4921545;28;20581;-80
2022/03/12 08:39:49;;;;;;;19.50;11.60;;;12.60;16.30;;;;;;4929340;28;20517;-77
2022/03/12 08:42:14;;;;;;;19.77;11.40;;;12.70;16.10;;;;;;4926559;28;20908;-76
2022/03/12 08:44:40;;;;;;;15.38;11.10;;;12.70;16.50;;;;;;4927254;28;20910;-77
2022/03/12 08:47:06;;;;;;;17.13;11.32;;;12.70;16.30;;;;;;4928735;28;20429;-77
2022/03/12 08:49:32;;;;;;;18.50;10.88;;;13.00;16.10;;;;;;4924234;29;20409;-77
2022/03/12 08:51:58;;;;;;;15.90;11.17;;;13.20;16.30;;;;;;4929002;28;20403;-77
2022/03/12 08:54:24;;;;;;;23.15;10.80;;;13.20;15.70;;;;;;4922869;28;20406;-77
2022/03/12 08:56:49;;;;;;;15.70;10.50;;;13.20;15.50;;;;;;4925017;28;20421;-77
2022/03/12 08:59:15;;;;;;;16.43;10.63;;;13.50;15.20;;;;;;4912431;28;20407;-77
2022/03/12 09:01:43;;;;;;;17.67;10.67;;;13.30;15.70;;;;;;4925508;28;20493;-78
2022/03/12 09:04:09;;;;;;;18.13;10.63;;;13.30;16.00;;;;;;4930630;29;20443;-77
2022/03/12 09:06:34;;;;;;;19.42;10.65;;;13.40;15.50;;;;;;4932906;29;20420;-76
2022/03/12 09:09:00;;;;;;;17.88;11.50;;;13.50;16.10;;;;;;4942681;28;20477;-76
2022/03/12 09:11:26;;;;;;;17.98;11.20;;;13.60;16.20;;;;;;4940038;28;20407;-75
2022/03/12 09:13:53;;;;;;;13.95;10.10;;;13.60;16.20;;;;;;4928833;28;20795;-76
2022/03/12 09:16:20;;;;;;;15.77;11.15;;;13.80;16.10;;;;;;4930059;28;20435;-76
2022/03/12 09:18:46;;;;;;;20.90;11.60;;;13.90;15.80;;;;;;4930484;29;20405;-77
2022/03/12 09:21:12;;;;;;;16.90;11.70;;;14.20;15.30;;;;;;4933126;28;20410;-77
2022/03/12 09:23:38;;;;;;;21.08;11.23;;;14.10;15.60;;;;;;4907239;29;20721;-78
2022/03/12 09:26:05;;;;;;;18.00;11.30;;;14.00;16.20;;;;;;4930660;29;20405;-77
2022/03/12 09:28:31;;;;;;;16.37;11.17;;;14.00;16.20;;;;;;4931123;28;20412;-78
2022/03/12 09:30:56;;;;;;;18.38;11.40;;;14.10;16.30;;;;;;4937246;29;20417;-74
2022/03/12 09:33:23;;;;;;;17.95;11.00;;;14.30;16.40;;;;;;4938011;28;20730;-77
2022/03/12 09:35:54;;;;;;;21.30;11.55;;;14.20;16.90;;;;;;4943243;28;20411;-77
2022/03/12 09:38:20;;;;;;;16.63;11.50;;;14.40;16.50;;;;;;4942505;28;20436;-78
2022/03/12 09:40:46;;;;;;;18.00;11.70;;;14.40;16.10;;;;;;4936993;28;20431;-75
2022/03/12 09:43:12;;;;;;;18.33;11.50;;;14.10;16.60;;;;;;4953698;28;20431;-81
2022/03/12 09:45:38;;;;;;;16.73;11.45;;;14.20;16.60;;;;;;4934863;29;20399;-80
2022/03/12 09:48:05;;;;;;;19.87;11.30;;;14.40;16.20;;;;;;4952122;28;20427;-80
2022/03/12 09:50:31;;;;;;;16.50;10.82;;;14.60;16.50;;;;;;4946607;28;20401;-78
2022/03/12 09:52:57;;;;;;;17.15;10.48;;;14.60;16.90;;;;;;4928458;28;20419;-80
2022/03/12 09:55:22;;;;;;;21.30;10.75;;;14.50;17.60;;;;;;4945331;28;20401;-79
2022/03/12 09:57:49;;;;;;;19.33;10.18;;;14.70;17.10;;;;;;4935663;29;20427;-77
2022/03/12 10:00:15;;;;;;;13.10;9.33;;;14.80;17.30;;;;;;4931028;28;20558;-80
2022/03/12 10:02:48;;;;;;;15.45;8.85;;;14.90;17.80;;;;;;4944879;28;20409;-80
2022/03/12 10:05:14;;;;;;;15.55;9.02;;;14.80;18.30;;;;;;4945684;29;20421;-79
2022/03/12 10:07:41;;;;;;;15.05;8.50;;;14.80;18.70;;;;;;4939375;29;20404;-78
2022/03/12 10:10:17;;;;;;;17.63;9.38;;;14.90;18.70;;;;;;4950444;29;20438;-80
2022/03/12 10:12:44;;;;;;;12.23;8.82;;;15.10;18.70;;;;;;4947683;28;20408;-79
2022/03/12 10:15:12;;;;;;;14.55;8.50;;;15.40;17.80;;;;;;4944087;28;20401;-80
2022/03/12 10:17:38;;;;;;;12.77;8.80;;;15.50;17.80;;;;;;4934075;28;20445;-79
2022/03/12 10:20:05;;;;;;;14.90;9.35;;;15.40;17.80;;;;;;4965512;28;20403;-78
2022/03/12 10:22:32;;;;;;;15.90;9.30;;;15.30;18.10;;;;;;4953959;28;20407;-77
2022/03/12 10:24:57;;;;;;;15.32;9.57;;;15.30;18.40;;;;;;4940512;29;20475;-76
2022/03/12 10:27:23;;;;;;;15.52;8.93;;;15.60;17.90;;;;;;4922619;29;20411;-77
2022/03/12 10:29:49;;;;;;;20.23;8.68;;;15.90;17.40;;;;;;4938467;29;20413;-78
2022/03/12 10:32:27;;;;;;;13.02;8.73;;;16.00;17.00;;;;;;4932500;28;20410;-78
2022/03/12 10:34:56;;;;;;;12.57;7.90;;;16.10;16.60;;;;;;4929963;29;20469;-78
2022/03/12 10:37:24;;;;;;;10.27;6.90;;;16.30;16.20;;;;;;4909207;28;20781;-79
2022/03/12 10:40:12;;;;;;;12.43;6.40;;;16.20;16.10;;;;;;4927001;29;20524;-78
2022/03/12 10:42:48;;;;;;;10.65;7.28;;;16.10;16.20;;;;;;4931069;28;20420;-78
2022/03/12 10:45:19;;;;;;;10.60;7.43;;;15.90;16.70;;;;;;4929438;29;20428;-77
2022/03/12 10:47:47;;;;;;;13.88;7.40;;;16.00;17.00;;;;;;4921650;29;20411;-77
2022/03/12 10:50:21;;;;;;;10.25;6.53;;;15.70;17.50;;;;;;4928667;28;20412;-77
2022/03/12 10:52:52;;;;;;;9.13;6.30;;;15.70;16.90;;;;;;4931140;28;20415;-78
2022/03/12 10:55:33;;;;;;;10.60;6.65;;;15.30;17.50;;;;;;4929505;28;20469;-79
2022/03/12 10:58:05;;;;;;;9.63;6.15;;;15.40;17.30;;;;;;4925613;29;20419;-78
2022/03/12 11:00:39;;;;;;;14.98;6.82;;;15.40;17.80;;;;;;4918384;29;20405;-78
2022/03/12 11:03:14;;;;;;;8.80;5.80;;;15.30;17.70;;;;;;4929971;29;20431;-78
2022/03/12 11:05:42;;;;;;;10.02;6.32;;;15.50;17.30;;;;;;4930684;29;20412;-78
2022/03/12 11:08:09;;;;;;;9.70;6.25;;;15.60;17.00;;;;;;4921094;29;20418;-78
2022/03/12 11:10:37;;;;;;;10.07;6.60;;;15.60;17.00;;;;;;4915708;28;20975;-79
2022/03/12 11:13:04;;;;;;;9.52;5.50;;;15.60;17.10;;;;;;4925583;29;20898;-79
2022/03/12 11:15:32;;;;;;;10.60;6.15;;;15.80;16.40;;;;;;4913507;29;20418;-79
2022/03/12 11:18:03;;;;;;;7.57;5.35;;;15.80;16.40;;;;;;4947849;28;20797;-79
2022/03/12 11:20:35;;;;;;;8.65;5.63;;;16.00;16.30;;;;;;4924194;28;20771;-79
2022/03/12 11:23:13;;;;;;;11.93;5.30;;;16.10;16.20;;;;;;4927214;29;20478;-78
2022/03/12 11:26:06;;;;;;;9.80;6.22;;;16.20;15.70;;;;;;4923933;28;20402;-79
2022/03/12 11:28:37;;;;;;;11.15;6.00;;;16.00;16.10;;;;;;4929640;28;20404;-78
2022/03/12 11:31:04;;;;;;;10.23;5.60;;;15.90;16.60;;;;;;4924314;29;20413;-80
2022/03/12 11:33:30;;;;;;;10.70;5.85;;;16.10;16.30;;;;;;4924291;29;20409;-78
2022/03/12 11:36:04;;;;;;;9.85;5.88;;;16.50;15.50;;;;;;4926272;28;20420;-73
2022/03/12 11:38:30;;;;;;;12.10;6.10;;;16.50;15.60;;;;;;4910049;29;20440;-73
2022/03/12 11:41:11;;;;;;;8.73;5.45;;;16.60;15.10;;;;;;4923746;28;20411;-73
2022/03/12 11:43:41;;;;;;;9.40;5.60;;;16.70;15.10;;;;;;4922190;28;21095;-73
2022/03/12 11:46:10;;;;;;;13.10;5.13;;;16.90;14.60;;;;;;4927850;29;20789;-73
2022/03/12 11:48:38;;;;;;;11.30;5.53;;;17.10;14.20;;;;;;4928282;28;20476;-74
2022/03/12 11:51:20;;;;;;;11.02;5.20;;;17.10;14.00;;;;;;4925031;28;20420;-74
2022/03/12 11:53:46;;;;;;;9.57;4.80;;;16.90;14.30;;;;;;4925142;28;20421;-74
2022/03/12 11:56:14;;;;;;;9.90;5.33;;;17.00;14.70;;;;;;4926141;29;20896;-73
2022/03/12 11:58:40;;;;;;;12.20;5.22;;;17.20;14.20;;;;;;4927458;28;20908;-73
2022/03/12 12:01:06;;;;;;;7.80;5.00;;;17.00;14.20;;;;;;4911183;28;20431;-73
2022/03/12 12:03:31;;;;;;;10.82;5.20;;;17.50;13.20;;;;;;4927130;29;20408;-74
2022/03/12 12:05:57;;;;;;;12.13;5.22;;;17.50;13.90;;;;;;4925647;29;20411;-72
2022/03/12 12:08:24;;;;;;;12.93;5.63;;;17.50;13.40;;;;;;4925546;28;20968;-72
2022/03/12 12:10:51;;;;;;;11.35;5.30;;;17.40;13.60;;;;;;4921323;28;20405;-73
2022/03/12 12:13:18;;;;;;;10.27;5.22;;;17.50;13.20;;;;;;4929600;28;20470;-72
2022/03/12 12:15:46;;;;;;;8.77;5.50;;;17.60;12.70;;;;;;4910772;28;20407;-71
2022/03/12 12:18:13;;;;;;;10.10;5.20;;;17.50;13.10;;;;;;4913015;28;20549;-72
2022/03/12 12:20:40;;;;;;;7.25;4.97;;;17.30;13.10;;;;;;4927235;28;20423;-72
2022/03/12 12:23:06;;;;;;;6.53;4.90;;;17.20;13.80;;;;;;4928040;28;20969;-73
2022/03/12 12:25:37;;;;;;;8.67;5.47;;;17.30;13.60;;;;;;4927811;28;20414;-73
2022/03/12 12:28:21;;;;;;;7.30;5.03;;;17.60;12.70;;;;;;4927996;29;20407;-73
2022/03/12 12:30:53;;;;;;;7.68;5.10;;;17.60;12.80;;;;;;4927921;28;20399;-72
2022/03/12 12:33:27;;;;;;;7.80;5.10;;;17.60;12.90;;;;;;4920718;29;20497;-72
2022/03/12 12:36:09;;;;;;;7.80;5.30;;;17.40;13.40;;;;;;4927906;28;20404;-74
2022/03/12 12:38:36;;;;;;;7.60;5.00;;;17.60;12.50;;;;;;4924257;29;20536;-69
2022/03/12 12:41:03;;;;;;;7.15;4.85;;;17.50;12.60;;;;;;4924456;29;20405;-72
2022/03/12 12:43:42;;;;;;;6.72;4.80;;;17.50;12.40;;;;;;4921830;29;20405;-72
2022/03/12 12:46:13;;;;;;;11.10;5.20;;;17.40;12.90;;;;;;4924124;28;20409;-73
2022/03/12 12:48:45;;;;;;;7.60;4.70;;;17.60;12.40;;;;;;4927135;28;20506;-73
2022/03/12 12:51:26;;;;;;;11.85;5.20;;;17.80;11.90;;;;;;4930394;28;20506;-73
2022/03/12 12:53:54;;;;;;;7.45;4.88;;;17.80;12.20;;;;;;4923893;28;20439;-74